Big Bear Station Historical Data
Daily Summary for November 21, 2017 Units:  English    Metric   Both
« Previous Day
Next Day »
Daily Weekly Monthly Yearly Custom
  High: Low: Average:
Temperature: 67.1 °F 34.2 °F 47.7 °F
Dew Point: 38.5 °F 28.3 °F 32.2 °F
Humidity: 84 % 31 % 59 %
Wind Speed: 2.7 mph 0.0 mph 0.3 mph
Wind Gust: -999.0 mph - -
Wind:- - South
Pressure: 30.40 in 23.66 in -
Precipitation: 0.00 in    
Historical Graphs
 
 
Tabular Data for November 21, 2017
Time Temperature Dew Point Pressure Wind Wind Speed Wind Gust Humidity Rainfall Rate (Hourly)
00:21 37.6 °F 29.7 °F 30.29 in Calm   -999.0 mph 73 % 0 in
00:36 37.2 °F 30.0 °F 30.29 in Calm   -999.0 mph 75 % 0 in
00:51 37.6 °F 31.0 °F 30.29 in Calm   -999.0 mph 77 % 0 in
01:06 37.2 °F 30.0 °F 30.29 in Calm   -999.0 mph 75 % 0 in
01:37 37.2 °F 30.3 °F 30.29 in Calm   -999.0 mph 76 % 0 in
01:52 37.0 °F 29.8 °F 30.29 in Calm   -999.0 mph 75 % 0 in
02:22 36.5 °F 28.7 °F 30.30 in Calm   -999.0 mph 73 % 0 in
02:38 36.5 °F 28.3 °F 30.30 in Calm   -999.0 mph 72 % 0 in
02:53 36.3 °F 29.5 °F 30.30 in Calm   -999.0 mph 76 % 0 in
03:08 36.1 °F 29.6 °F 30.30 in Calm   -999.0 mph 77 % 0 in
03:23 36.1 °F 29.3 °F 30.30 in Calm   -999.0 mph 76 % 0 in
03:39 35.6 °F 28.8 °F 23.66 in Calm   -999.0 mph 76 % 0 in
03:54 35.2 °F 28.7 °F 30.31 in Calm   -999.0 mph 77 % 0 in
04:09 35.4 °F 28.9 °F 30.31 in South 2.7 mph -999.0 mph 77 % 0 in
04:24 35.6 °F 29.7 °F 30.31 in Calm   -999.0 mph 79 % 0 in
04:55 34.9 °F 29.1 °F 30.31 in Calm   -999.0 mph 79 % 0 in
05:10 34.9 °F 29.7 °F 30.32 in Calm   -999.0 mph 81 % 0 in
05:25 35.1 °F 30.5 °F 30.32 in Calm   -999.0 mph 83 % 0 in
05:55 34.5 °F 29.6 °F 30.33 in Calm   -999.0 mph 82 % 0 in
06:11 34.3 °F 29.4 °F 30.33 in Calm   -999.0 mph 82 % 0 in
06:41 34.2 °F 29.9 °F 30.34 in Calm   -999.0 mph 84 % 0 in
07:11 35.1 °F 30.8 °F 30.35 in Calm   -999.0 mph 84 % 0 in
07:27 34.9 °F 30.3 °F 23.71 in Calm   -999.0 mph 83 % 0 in
07:42 35.2 °F 30.3 °F 30.36 in Calm   -999.0 mph 82 % 0 in
07:57 36.5 °F 30.6 °F 30.36 in Calm   -999.0 mph 79 % 0 in
08:12 36.5 °F 31.2 °F 30.36 in Calm   -999.0 mph 81 % 0 in
08:27 37.8 °F 32.5 °F 30.36 in Calm   -999.0 mph 81 % 0 in
08:43 39.7 °F 33.7 °F 30.37 in Calm   -999.0 mph 79 % 0 in
08:58 41.2 °F 34.9 °F 23.72 in Calm   -999.0 mph 78 % 0 in
09:13 43.7 °F 36.6 °F 30.38 in Calm   -999.0 mph 76 % 0 in
09:59 52.0 °F 36.3 °F 30.38 in Calm   -999.0 mph 55 % 0 in
10:14 54.3 °F 37.5 °F 30.38 in Calm   -999.0 mph 53 % 0 in
10:29 61.2 °F 37.3 °F 30.38 in WSW 2.2 mph -999.0 mph 41 % 0 in
10:44 62.2 °F 37.6 °F 23.73 in Calm   -999.0 mph 40 % 0 in
11:00 64.0 °F 37.9 °F 30.37 in Calm   -999.0 mph 38 % 0 in
11:15 64.4 °F 38.2 °F 30.37 in ENE 1.1 mph -999.0 mph 38 % 0 in
11:46 66.0 °F 38.3 °F 30.36 in East 2.2 mph -999.0 mph 36 % 0 in
12:01 65.3 °F 36.9 °F 30.36 in NNW 1.1 mph -999.0 mph 35 % 0 in
12:16 66.2 °F 38.5 °F 30.35 in Calm   -999.0 mph 36 % 0 in
12:31 66.2 °F 37.0 °F 30.35 in ESE 2.7 mph -999.0 mph 34 % 0 in
12:47 66.4 °F 37.2 °F 30.35 in Calm   -999.0 mph 34 % 0 in
13:02 67.1 °F 36.3 °F 30.35 in NNW 2.2 mph -999.0 mph 32 % 0 in
13:17 66.7 °F 35.9 °F 30.35 in East 1.7 mph -999.0 mph 32 % 0 in
13:32 66.4 °F 35.6 °F 30.35 in Calm   -999.0 mph 32 % 0 in
14:03 65.3 °F 34.7 °F 30.34 in NNE 1.1 mph -999.0 mph 32 % 0 in
14:33 64.8 °F 34.2 °F 30.34 in Calm   -999.0 mph 32 % 0 in
14:48 64.4 °F 33.1 °F 23.69 in SW 2.7 mph -999.0 mph 31 % 0 in
15:04 63.7 °F 33.3 °F 30.34 in Calm   -999.0 mph 32 % 0 in
15:19 63.1 °F 33.5 °F 30.34 in WNW 1.7 mph -999.0 mph 33 % 0 in
15:34 62.2 °F 32.7 °F 30.35 in Calm   -999.0 mph 33 % 0 in
15:49 61.2 °F 31.9 °F 23.70 in Calm   -999.0 mph 33 % 0 in
16:04 59.9 °F 31.5 °F 30.35 in Calm   -999.0 mph 34 % 0 in
16:20 58.6 °F 31.7 °F 30.35 in Calm   -999.0 mph 36 % 0 in
16:35 57.0 °F 31.6 °F 30.35 in Calm   -999.0 mph 38 % 0 in
17:05 54.0 °F 32.0 °F 30.35 in Calm   -999.0 mph 43 % 0 in
17:51 50.4 °F 32.0 °F 30.37 in Calm   -999.0 mph 49 % 0 in
18:21 49.1 °F 31.3 °F 30.38 in Calm   -999.0 mph 50 % 0 in
18:36 48.4 °F 31.6 °F 23.72 in Calm   -999.0 mph 52 % 0 in
18:52 47.5 °F 31.7 °F 30.38 in Calm   -999.0 mph 54 % 0 in
19:07 47.1 °F 31.3 °F 30.39 in Calm   -999.0 mph 54 % 0 in
19:22 46.9 °F 31.6 °F 30.39 in Calm   -999.0 mph 55 % 0 in
19:38 46.8 °F 30.6 °F 30.39 in Calm   -999.0 mph 53 % 0 in
19:53 46.4 °F 29.2 °F 30.39 in Calm   -999.0 mph 51 % 0 in
20:39 45.3 °F 30.5 °F 30.39 in Calm   -999.0 mph 56 % 0 in
20:54 44.8 °F 29.2 °F 30.39 in Calm   -999.0 mph 54 % 0 in
21:09 44.4 °F 32.2 °F 30.40 in Calm   -999.0 mph 62 % 0 in
21:40 43.2 °F 31.1 °F 30.40 in Calm   -999.0 mph 62 % 0 in
21:55 42.8 °F 31.1 °F 30.40 in Calm   -999.0 mph 63 % 0 in
22:26 42.6 °F 30.1 °F 30.40 in Calm   -999.0 mph 61 % 0 in
23:27 42.3 °F 29.4 °F 30.39 in Calm   -999.0 mph 60 % 0 in
23:57 41.4 °F 30.1 °F 30.39 in Calm   -999.0 mph 64 % 0 in
Big Bear CA Weather
Compliments of Weather Underground - 1.25 mb